Time;durP1;ratioP1;P1;durP2;ratioP2;P2;SDS_P1;SDS_P2;PMS_P1;PMS_P2;Temp;Humidity;BMP_temperature;BMP_pressure;BME280_temperature;BME280_humidity;BME280_pressure;Samples;Min_cycle;Max_cycle;Signal;HPM_P1;HPM_P2
2023/01/28 00:00:32;;;;;;;12.75;8.10;;;;;;;4.59;76.91;102842.22;5032944;28;20029;-63
2023/01/28 00:02:58;;;;;;;10.70;7.70;;;;;;;4.60;76.36;102839.69;5052944;28;20028;-64
2023/01/28 00:05:24;;;;;;;10.68;7.72;;;;;;;4.59;75.73;102839.59;5054875;28;20023;-63
2023/01/28 00:07:50;;;;;;;10.88;7.78;;;;;;;4.59;76.04;102840.50;5072892;28;20020;-62
2023/01/28 00:10:16;;;;;;;11.95;7.93;;;;;;;4.65;75.90;102848.75;5072723;28;20524;-64
2023/01/28 00:12:41;;;;;;;11.63;8.18;;;;;;;4.69;75.71;102847.25;5072409;28;20051;-63
2023/01/28 00:15:07;;;;;;;11.60;7.95;;;;;;;4.61;75.90;102844.09;5072936;28;20434;-64
2023/01/28 00:17:35;;;;;;;12.23;8.55;;;;;;;4.64;75.71;102854.78;5072701;28;20028;-64
2023/01/28 00:20:01;;;;;;;11.55;8.18;;;;;;;4.64;76.21;102851.28;5073102;28;20063;-64
2023/01/28 00:22:27;;;;;;;12.02;8.43;;;;;;;4.63;76.17;102855.59;5072931;28;20564;-64
2023/01/28 00:24:52;;;;;;;12.48;8.20;;;;;;;4.60;75.49;102859.72;5072820;28;20105;-64
2023/01/28 00:27:18;;;;;;;11.35;7.75;;;;;;;4.59;76.26;102857.91;5072849;28;20478;-64
2023/01/28 00:29:43;;;;;;;11.68;8.25;;;;;;;4.56;75.39;102855.09;5072610;28;20039;-64
2023/01/28 00:32:09;;;;;;;11.55;8.35;;;;;;;4.52;76.25;102860.09;5072872;28;20035;-63
2023/01/28 00:34:34;;;;;;;12.65;8.50;;;;;;;4.54;76.74;102862.84;5073101;28;20025;-64
2023/01/28 00:36:59;;;;;;;12.25;8.32;;;;;;;4.44;76.50;102863.91;5072743;28;20028;-63
2023/01/28 00:39:25;;;;;;;12.98;8.70;;;;;;;4.36;76.02;102864.19;5072804;28;20532;-64
2023/01/28 00:41:51;;;;;;;11.27;7.72;;;;;;;4.32;76.97;102860.44;5072692;28;20029;-64
2023/01/28 00:44:18;;;;;;;12.15;7.78;;;;;;;4.31;76.40;102862.97;5072684;28;20024;-64
2023/01/28 00:46:43;;;;;;;11.30;7.97;;;;;;;4.30;76.67;102862.06;5072953;28;20048;-63
2023/01/28 00:49:09;;;;;;;12.02;8.45;;;;;;;4.27;76.06;102859.22;5054790;28;20094;-64
2023/01/28 00:51:35;;;;;;;12.10;7.88;;;;;;;4.16;74.87;102860.22;5072508;28;20032;-64
2023/01/28 00:54:00;;;;;;;11.70;8.15;;;;;;;4.14;76.02;102861.81;5072528;28;20108;-63
2023/01/28 00:56:26;;;;;;;12.88;8.25;;;;;;;4.13;75.60;102873.09;5054903;28;20078;-63
2023/01/28 00:58:51;;;;;;;12.40;8.68;;;;;;;4.14;75.72;102867.94;5054355;28;20474;-64
2023/01/28 01:01:20;;;;;;;12.13;7.97;;;;;;;4.16;75.42;102871.59;5054634;28;20090;-64
2023/01/28 01:03:46;;;;;;;14.50;8.07;;;;;;;4.16;75.72;102876.84;5072479;28;20031;-64
2023/01/28 01:06:13;;;;;;;12.02;8.05;;;;;;;4.14;75.46;102878.41;5057210;28;20404;-64
2023/01/28 01:08:41;;;;;;;11.88;8.30;;;;;;;4.15;75.88;102879.31;5058738;28;20064;-63
2023/01/28 01:11:10;;;;;;;11.35;8.10;;;;;;;4.15;75.70;102869.75;5076270;28;20112;-64
2023/01/28 01:13:36;;;;;;;11.88;8.32;;;;;;;4.17;76.10;102868.16;5076079;28;20187;-64
2023/01/28 01:16:07;;;;;;;11.57;8.20;;;;;;;4.23;75.71;102863.34;5076215;28;20473;-64
2023/01/28 01:18:33;;;;;;;11.75;8.07;;;;;;;4.26;75.36;102871.41;5076137;28;20099;-64
2023/01/28 01:20:59;;;;;;;12.05;8.13;;;;;;;4.32;75.78;102862.16;5076171;28;20078;-63
2023/01/28 01:23:26;;;;;;;13.55;8.77;;;;;;;4.37;75.64;102869.56;5076121;28;20020;-64
2023/01/28 01:25:54;;;;;;;13.65;8.93;;;;;;;4.40;74.98;102872.34;5058191;28;20493;-63
2023/01/28 01:28:20;;;;;;;13.98;9.43;;;;;;;4.40;74.37;102863.59;5076085;28;20017;-64
2023/01/28 01:30:47;;;;;;;12.65;8.65;;;;;;;4.35;74.48;102851.91;5075936;28;20390;-64
2023/01/28 01:33:13;;;;;;;13.05;9.23;;;;;;;4.38;74.32;102860.88;5076235;28;20049;-64
2023/01/28 01:35:39;;;;;;;13.60;8.75;;;;;;;4.41;75.58;102857.56;5075875;28;20074;-63
2023/01/28 01:38:05;;;;;;;12.80;9.05;;;;;;;4.40;74.70;102864.50;5076027;28;20020;-64
2023/01/28 01:40:30;;;;;;;12.30;8.82;;;;;;;4.37;74.52;102859.09;5075734;28;20024;-63
2023/01/28 01:42:55;;;;;;;12.75;8.43;;;;;;;4.38;74.02;102857.38;5075786;28;20039;-64
2023/01/28 01:45:21;;;;;;;12.35;8.70;;;;;;;4.38;73.88;102866.13;5075710;28;20043;-64
2023/01/28 01:47:58;;;;;;;13.15;8.50;;;;;;;4.39;73.87;102862.69;5075770;28;20052;-64
2023/01/28 01:50:27;;;;;;;14.50;8.98;;;;;;;4.38;74.17;102873.97;5075644;28;20078;-64
2023/01/28 01:52:59;;;;;;;13.63;8.98;;;;;;;4.35;74.87;102865.91;5057752;28;20035;-64
2023/01/28 01:55:30;;;;;;;13.48;9.27;;;;;;;4.32;73.90;102864.78;5057666;28;20111;-64
2023/01/28 01:57:59;;;;;;;11.90;8.32;;;;;;;4.30;74.27;102872.53;5075247;28;20496;-63
2023/01/28 02:00:24;;;;;;;12.65;8.82;;;;;;;4.23;74.23;102875.53;5075372;28;20082;-64
2023/01/28 02:02:52;;;;;;;13.07;8.57;;;;;;;4.19;74.13;102866.56;5075464;28;20024;-64
2023/01/28 02:05:20;;;;;;;12.48;8.85;;;;;;;4.18;73.75;102882.16;5075656;28;20048;-64
2023/01/28 02:07:48;;;;;;;12.98;8.80;;;;;;;4.18;74.43;102871.69;5075272;28;20024;-63
2023/01/28 02:10:15;;;;;;;12.68;8.63;;;;;;;4.22;73.71;102873.72;5075364;28;20027;-63
2023/01/28 02:12:48;;;;;;;13.52;9.32;;;;;;;4.25;73.72;102872.22;5074926;28;20116;-63
2023/01/28 02:15:23;;;;;;;13.68;9.25;;;;;;;4.28;73.27;102876.75;5057268;28;20032;-64
2023/01/28 02:17:51;;;;;;;14.40;9.25;;;;;;;4.26;73.94;102879.25;5074070;28;20100;-64
2023/01/28 02:20:44;;;;;;;14.80;9.85;;;;;;;4.23;73.69;102886.00;5075028;28;20492;-63
2023/01/28 02:23:27;;;;;;;13.32;9.05;;;;;;;4.23;74.10;102876.44;5075109;28;20086;-64
2023/01/28 02:26:14;;;;;;;13.32;9.25;;;;;;;4.26;73.45;102879.25;5075268;28;20087;-64
2023/01/28 02:28:42;;;;;;;14.65;9.43;;;;;;;4.24;72.91;102877.38;5074806;28;20120;-63
2023/01/28 02:31:33;;;;;;;14.07;9.30;;;;;;;4.24;73.94;102869.50;5074914;28;20044;-63
2023/01/28 02:34:10;;;;;;;14.38;8.93;;;;;;;4.24;73.16;102878.28;5075102;28;20378;-64
2023/01/28 02:36:45;;;;;;;16.63;9.65;;;;;;;4.22;73.85;102868.47;5074800;28;20024;-64
2023/01/28 02:39:34;;;;;;;17.25;9.88;;;;;;;4.23;74.51;102872.91;5074850;28;20036;-63
2023/01/28 02:42:21;;;;;;;15.65;8.60;;;;;;;4.19;74.29;102869.16;5073959;28;20041;-63
2023/01/28 02:44:46;;;;;;;17.85;10.23;;;;;;;4.11;74.37;102859.91;5074790;28;20036;-64
2023/01/28 02:50:08;;;;;;;15.23;9.43;;;;;;;4.18;74.59;102872.59;5074895;28;20039;-64
2023/01/28 02:55:49;;;;;;;14.07;8.85;;;;;;;4.23;74.71;102873.81;5074822;28;20116;-63
2023/01/28 02:58:29;;;;;;;15.13;8.75;;;;;;;4.26;75.12;102881.88;5074231;28;20029;-64
2023/01/28 03:00:56;;;;;;;15.73;9.35;;;;;;;4.23;74.84;102886.00;5074233;28;20029;-64
2023/01/28 03:03:39;;;;;;;13.68;9.10;;;;;;;4.23;74.30;102883.38;5074398;28;20020;-64
2023/01/28 03:06:11;;;;;;;12.80;8.43;;;;;;;4.22;73.17;102879.84;5074168;28;20036;-64
2023/01/28 03:36:52;;;;;;;9.27;6.57;;;;;;;3.93;70.82;102890.00;5073908;28;20051;-63
2023/01/28 03:39:21;;;;;;;9.52;6.28;;;;;;;3.91;70.83;102891.59;5073614;28;20499;-63
2023/01/28 03:42:00;;;;;;;9.45;6.78;;;;;;;3.93;71.61;102896.13;5073708;28;20016;-63
2023/01/28 03:47:10;;;;;;;9.40;6.72;;;;;;;3.93;72.70;102895.22;5073513;28;20039;-63
2023/01/28 03:49:38;;;;;;;10.20;6.97;;;;;;;4.00;72.85;102889.63;5073340;28;20028;-63
2023/01/28 03:52:04;;;;;;;9.85;7.13;;;;;;;4.02;72.80;102882.78;5073590;28;20036;-64
2023/01/28 03:54:29;;;;;;;9.30;6.80;;;;;;;3.99;72.53;102888.72;5073172;28;20029;-64
2023/01/28 03:56:55;;;;;;;8.13;6.13;;;;;;;3.98;73.36;102884.31;5073303;28;20363;-64
2023/01/28 03:59:20;;;;;;;8.52;6.22;;;;;;;3.94;73.40;102897.03;5073037;28;20396;-63
2023/01/28 04:01:45;;;;;;;9.73;6.85;;;;;;;3.88;73.70;102880.91;5073033;28;20363;-63
2023/01/28 04:04:21;;;;;;;10.15;7.25;;;;;;;3.91;74.49;102899.47;5073120;28;20074;-64
2023/01/28 04:06:47;;;;;;;10.63;7.22;;;;;;;3.93;75.42;102903.06;5073096;28;20038;-63
2023/01/28 04:09:13;;;;;;;10.63;7.30;;;;;;;3.98;75.07;102905.22;5073062;28;20100;-63
2023/01/28 04:11:38;;;;;;;11.40;7.78;;;;;;;4.00;75.54;102914.09;5073071;28;20473;-64
2023/01/28 04:14:04;;;;;;;11.63;8.27;;;;;;;3.95;76.25;102914.56;5072853;28;20520;-64
2023/01/28 04:16:29;;;;;;;11.35;8.13;;;;;;;3.93;75.53;102913.53;5072970;28;20028;-63
2023/01/28 04:18:54;;;;;;;11.00;7.78;;;;;;;3.87;76.80;102918.34;5073206;28;20473;-64
2023/01/28 04:21:20;;;;;;;11.20;8.00;;;;;;;3.87;76.67;102915.72;5072965;28;20036;-64
2023/01/28 04:23:45;;;;;;;11.00;7.88;;;;;;;3.87;77.07;102914.00;5072976;28;20051;-64
2023/01/28 04:26:11;;;;;;;14.30;8.75;;;;;;;3.94;77.49;102908.44;5072901;28;20063;-63
2023/01/28 04:28:36;;;;;;;12.05;8.68;;;;;;;3.94;77.06;102910.09;5072652;28;20474;-64
2023/01/28 04:31:02;;;;;;;13.02;8.93;;;;;;;3.90;76.43;102913.34;5072843;28;20078;-64
2023/01/28 04:33:27;;;;;;;12.18;8.40;;;;;;;3.92;77.34;102915.25;5072859;28;20082;-64
2023/01/28 04:35:53;;;;;;;14.13;9.55;;;;;;;3.88;77.13;102907.97;5054861;28;20028;-63
2023/01/28 04:38:20;;;;;;;14.25;9.18;;;;;;;3.84;77.76;102912.88;5054818;28;20107;-63
2023/01/28 04:40:48;;;;;;;12.43;8.57;;;;;;;3.77;77.26;102903.72;5074598;28;20056;-64
2023/01/28 04:43:14;;;;;;;14.27;9.20;;;;;;;3.78;77.18;102904.63;5076892;28;20056;-63
2023/01/28 04:45:39;;;;;;;12.13;8.07;;;;;;;3.78;76.99;102900.28;5077089;28;20110;-64
2023/01/28 04:48:05;;;;;;;13.10;8.35;;;;;;;3.83;76.93;102908.47;5058796;28;20504;-64
2023/01/28 04:50:30;;;;;;;12.73;8.65;;;;;;;3.86;76.84;102900.84;5076822;28;20040;-64
2023/01/28 04:52:56;;;;;;;12.80;8.80;;;;;;;3.91;77.49;102905.59;5076824;28;20474;-64
2023/01/28 04:55:21;;;;;;;12.20;8.27;;;;;;;3.91;76.65;102904.69;5076518;28;20020;-63
2023/01/28 04:57:47;;;;;;;12.60;8.73;;;;;;;3.91;77.11;102909.91;5076647;28;20020;-63
2023/01/28 05:00:13;;;;;;;12.98;9.00;;;;;;;3.89;77.00;102917.63;5076238;28;20094;-63
2023/01/28 05:02:38;;;;;;;13.30;8.60;;;;;;;3.93;77.50;102917.06;5076385;28;20107;-64
2023/01/28 05:05:07;;;;;;;13.60;8.88;;;;;;;3.92;77.51;102919.56;5076552;28;20028;-64
2023/01/28 05:07:33;;;;;;;13.25;8.25;;;;;;;3.88;76.83;102918.44;5076476;28;20025;-64
2023/01/28 05:09:58;;;;;;;13.23;8.30;;;;;;;3.86;76.96;102921.75;5076461;28;20535;-64
2023/01/28 05:12:24;;;;;;;12.65;8.68;;;;;;;3.85;77.07;102920.81;5076530;28;20032;-63
2023/01/28 05:14:49;;;;;;;13.43;8.77;;;;;;;3.85;77.27;102915.59;5076088;28;20115;-63
2023/01/28 05:17:15;;;;;;;12.93;8.85;;;;;;;3.85;77.06;102909.47;5058278;28;20060;-64
2023/01/28 05:19:40;;;;;;;12.05;8.30;;;;;;;3.88;77.06;102925.38;5076141;28;20021;-64
2023/01/28 05:22:05;;;;;;;12.05;7.82;;;;;;;3.93;77.47;102927.50;5076333;28;20137;-64
2023/01/28 05:24:31;;;;;;;13.10;9.05;;;;;;;3.91;76.96;102920.38;5076358;28;20542;-63
2023/01/28 05:26:56;;;;;;;15.45;10.07;;;;;;;3.91;76.74;102915.16;5076160;28;20024;-63
2023/01/28 05:29:22;;;;;;;14.20;9.05;;;;;;;3.86;76.38;102925.28;5075655;28;20055;-63
2023/01/28 05:31:48;;;;;;;12.15;7.95;;;;;;;3.75;75.80;102914.03;5075892;28;20033;-63
2023/01/28 05:34:14;;;;;;;14.05;8.55;;;;;;;3.73;75.84;102913.03;5076219;28;20032;-63
2023/01/28 05:36:42;;;;;;;13.38;8.82;;;;;;;3.73;76.09;102909.53;5076093;28;20025;-63
2023/01/28 05:39:07;;;;;;;12.50;8.25;;;;;;;3.69;75.41;102905.78;5075765;28;20032;-63
2023/01/28 05:41:33;;;;;;;11.65;7.75;;;;;;;3.70;75.79;102907.59;5075984;28;20021;-64
2023/01/28 05:43:59;;;;;;;12.27;8.13;;;;;;;3.67;74.77;102912.59;5075670;28;20492;-64
2023/01/28 05:46:24;;;;;;;11.98;8.10;;;;;;;3.58;74.97;102900.56;5075734;28;20054;-63
2023/01/28 05:48:50;;;;;;;12.57;7.90;;;;;;;3.61;74.31;102903.41;5075692;28;20062;-63
2023/01/28 05:51:16;;;;;;;11.48;7.57;;;;;;;3.61;73.70;102906.94;5075638;28;20117;-64
2023/01/28 05:53:41;;;;;;;11.40;7.75;;;;;;;3.59;72.31;102910.22;5075627;28;20051;-63
2023/01/28 05:56:07;;;;;;;9.45;6.97;;;;;;;3.49;72.63;102911.25;5075610;28;20017;-64
2023/01/28 05:58:33;;;;;;;10.07;7.32;;;;;;;3.47;72.05;102924.22;5057351;28;20435;-64
2023/01/28 06:00:58;;;;;;;9.93;6.80;;;;;;;3.54;71.79;102922.03;5075638;28;20105;-63
2023/01/28 06:03:24;;;;;;;10.27;6.97;;;;;;;3.51;71.08;102912.25;5075720;28;20084;-63
2023/01/28 06:05:49;;;;;;;10.40;6.80;;;;;;;3.47;70.72;102919.00;5075395;28;20389;-64
2023/01/28 06:08:15;;;;;;;10.55;6.78;;;;;;;3.46;69.97;102914.56;5075535;28;20408;-64
2023/01/28 06:10:40;;;;;;;11.00;7.20;;;;;;;3.49;70.22;102932.16;5075281;28;20481;-63
2023/01/28 06:13:07;;;;;;;9.77;6.78;;;;;;;3.49;71.15;102922.63;5075036;28;20049;-64
2023/01/28 06:15:32;;;;;;;9.70;7.05;;;;;;;3.46;69.81;102922.38;5075315;28;20037;-64
2023/01/28 06:17:58;;;;;;;9.10;6.53;;;;;;;3.42;69.98;102930.81;5057396;28;20024;-63
2023/01/28 06:20:23;;;;;;;10.88;7.28;;;;;;;3.41;69.60;102929.00;5075336;28;20058;-63
2023/01/28 06:22:52;;;;;;;9.95;6.97;;;;;;;3.37;69.15;102933.88;5075035;28;20453;-63
2023/01/28 06:25:18;;;;;;;9.77;7.28;;;;;;;3.35;69.82;102931.16;5075021;28;20074;-62
2023/01/28 06:27:43;;;;;;;10.30;7.10;;;;;;;3.34;70.72;102941.50;5075227;28;20478;-64
2023/01/28 06:30:10;;;;;;;10.95;7.60;;;;;;;3.37;70.23;102929.56;5074756;28;20506;-64
2023/01/28 06:32:37;;;;;;;12.05;7.88;;;;;;;3.41;70.51;102931.59;5074834;28;20385;-63
2023/01/28 06:35:03;;;;;;;10.82;7.43;;;;;;;3.40;69.66;102932.41;5074810;28;20037;-63
2023/01/28 06:37:28;;;;;;;12.90;7.95;;;;;;;3.40;69.83;102940.25;5074919;28;20027;-63
2023/01/28 06:39:53;;;;;;;11.27;7.63;;;;;;;3.39;69.46;102930.59;5056791;28;20460;-63
2023/01/28 06:42:19;;;;;;;12.20;7.90;;;;;;;3.41;69.78;102930.69;5074542;28;20036;-63
2023/01/28 06:44:44;;;;;;;12.18;7.80;;;;;;;3.45;69.15;102937.97;5074702;28;20051;-64
2023/01/28 06:47:10;;;;;;;10.65;7.80;;;;;;;3.44;69.09;102941.38;5074627;28;20378;-64
2023/01/28 06:49:38;;;;;;;12.00;8.00;;;;;;;3.41;69.23;102946.38;5056614;28;20031;-63
2023/01/28 06:52:03;;;;;;;12.40;7.72;;;;;;;3.36;69.24;102938.22;5074762;28;20426;-63
2023/01/28 06:54:29;;;;;;;12.90;8.00;;;;;;;3.34;69.29;102938.88;5048747;28;20111;-63
2023/01/28 06:56:54;;;;;;;11.50;7.75;;;;;;;3.38;70.01;102940.91;5034499;28;20034;-63
2023/01/28 06:59:20;;;;;;;11.45;7.75;;;;;;;3.37;68.21;102950.47;5034276;28;20100;-63
2023/01/28 07:01:46;;;;;;;14.95;9.52;;;;;;;3.35;69.55;102938.09;5034302;28;20029;-64
2023/01/28 07:04:11;;;;;;;14.80;9.75;;;;;;;3.33;69.25;102944.91;5033867;28;20072;-63
2023/01/28 07:06:36;;;;;;;11.40;7.80;;;;;;;3.28;69.07;102944.56;5034630;28;20494;-62
2023/01/28 07:09:02;;;;;;;11.95;8.05;;;;;;;3.25;69.16;102950.50;5034290;28;20386;-62
2023/01/28 07:11:27;;;;;;;13.00;8.18;;;;;;;3.28;69.17;102954.13;5034304;28;20029;-63
2023/01/28 07:13:53;;;;;;;11.93;7.88;;;;;;;3.29;69.88;102953.31;5033888;28;20546;-63
2023/01/28 07:16:18;;;;;;;12.48;7.95;;;;;;;3.34;70.20;102955.50;5034102;28;20033;-64
2023/01/28 07:18:44;;;;;;;11.27;7.90;;;;;;;3.36;69.08;102947.75;5034087;28;20029;-64
2023/01/28 07:21:09;;;;;;;11.93;8.10;;;;;;;3.32;68.71;102958.78;5033584;28;20069;-63
2023/01/28 07:23:35;;;;;;;13.55;8.27;;;;;;;3.25;69.12;102962.63;5034025;28;20136;-65
2023/01/28 07:26:02;;;;;;;11.60;7.95;;;;;;;3.24;68.66;102971.25;5033931;28;20107;-63
2023/01/28 07:28:29;;;;;;;11.75;7.90;;;;;;;3.24;69.02;102980.00;5033669;28;20048;-64
2023/01/28 07:30:55;;;;;;;10.90;7.85;;;;;;;3.14;68.53;102963.53;5034134;28;20041;-63
2023/01/28 07:33:20;;;;;;;11.43;7.85;;;;;;;3.15;68.30;102978.41;5016177;28;20021;-63
2023/01/28 07:35:47;;;;;;;14.10;8.82;;;;;;;3.20;68.39;102983.19;5033698;28;20065;-64
2023/01/28 07:38:13;;;;;;;11.85;7.72;;;;;;;3.31;68.55;102983.09;5033692;28;20089;-64
2023/01/28 07:40:39;;;;;;;12.25;7.50;;;;;;;3.36;68.57;102981.72;5033662;28;20116;-64
2023/01/28 07:43:06;;;;;;;11.13;7.78;;;;;;;3.37;67.97;102984.44;5033927;28;20112;-65
2023/01/28 07:45:32;;;;;;;15.07;9.35;;;;;;;3.39;68.48;102985.47;5033818;28;20030;-64
2023/01/28 07:48:01;;;;;;;40.65;19.58;;;;;;;3.36;68.23;102976.50;5033522;28;20029;-63
2023/01/28 07:50:28;;;;;;;17.00;10.15;;;;;;;3.29;68.16;102977.72;5033590;28;20021;-64
2023/01/28 07:52:57;;;;;;;13.93;8.77;;;;;;;3.25;68.36;102989.69;5033487;28;20121;-63
2023/01/28 07:55:22;;;;;;;12.80;8.65;;;;;;;3.19;68.88;102989.22;5032254;28;20033;-64
2023/01/28 07:57:52;;;;;;;12.18;8.65;;;;;;;3.09;68.24;103001.47;5033413;28;20459;-64
2023/01/28 08:00:19;;;;;;;11.80;8.38;;;;;;;3.00;68.44;102999.06;5033299;28;20021;-63
2023/01/28 08:02:46;;;;;;;12.52;8.35;;;;;;;3.03;69.24;102998.38;5033315;28;20397;-64
2023/01/28 08:05:16;;;;;;;12.00;8.40;;;;;;;3.05;68.50;102999.41;5032008;28;20096;-64
2023/01/28 08:07:41;;;;;;;14.40;8.68;;;;;;;3.05;68.52;102999.41;5032070;28;20538;-63
2023/01/28 08:10:08;;;;;;;11.38;7.65;;;;;;;3.09;68.04;102983.19;5033220;28;20101;-64
2023/01/28 08:12:33;;;;;;;12.93;8.43;;;;;;;3.18;68.39;102987.41;5033546;28;20352;-63
2023/01/28 08:14:58;;;;;;;13.80;8.18;;;;;;;3.22;68.75;102996.38;5032120;28;20053;-63
2023/01/28 08:17:24;;;;;;;12.32;8.15;;;;;;;3.25;68.66;103010.59;5037247;28;20386;-64
2023/01/28 08:19:49;;;;;;;13.18;8.65;;;;;;;3.32;68.71;103013.63;5072966;28;20028;-64
2023/01/28 08:22:15;;;;;;;14.15;8.63;;;;;;;3.30;68.31;103018.75;5072867;28;20035;-64
2023/01/28 08:24:40;;;;;;;11.93;8.27;;;;;;;3.28;66.82;103024.66;5073016;28;20424;-64
2023/01/28 08:27:07;;;;;;;12.82;8.77;;;;;;;3.27;67.74;103028.97;5072905;28;20026;-64
2023/01/28 08:29:32;;;;;;;12.73;8.48;;;;;;;3.20;67.17;103024.97;5072599;28;20031;-63
2023/01/28 08:31:57;;;;;;;12.20;8.30;;;;;;;3.19;67.95;103031.00;5072796;28;20028;-64
2023/01/28 08:34:23;;;;;;;12.73;8.35;;;;;;;3.22;69.15;103038.19;5072786;28;20032;-64
2023/01/28 08:36:48;;;;;;;14.20;8.35;;;;;;;3.30;69.23;103025.66;5072764;28;20469;-63
2023/01/28 08:39:14;;;;;;;12.23;8.73;;;;;;;3.37;68.64;103030.56;5072674;28;20029;-64
2023/01/28 08:41:39;;;;;;;13.73;8.30;;;;;;;3.36;67.58;103026.16;5054518;28;20033;-64
2023/01/28 08:44:04;;;;;;;13.45;8.23;;;;;;;3.40;68.53;103038.66;5055018;28;20032;-64
2023/01/28 08:46:30;;;;;;;13.25;8.90;;;;;;;3.41;68.24;103045.69;5072687;28;20028;-63
2023/01/28 08:48:56;;;;;;;12.23;7.95;;;;;;;3.42;68.37;103037.03;5072669;28;20098;-63
2023/01/28 08:51:22;;;;;;;12.55;8.30;;;;;;;3.50;68.16;103044.66;5072641;28;20024;-63
2023/01/28 08:53:47;;;;;;;11.77;8.20;;;;;;;3.55;67.63;103044.09;5072814;28;20024;-63
2023/01/28 08:56:13;;;;;;;13.80;8.25;;;;;;;3.52;67.82;103036.97;5072541;28;20020;-64
2023/01/28 08:58:40;;;;;;;13.07;9.05;;;;;;;3.56;68.82;103049.47;5072526;28;20032;-63
2023/01/28 09:01:05;;;;;;;12.57;8.30;;;;;;;3.57;68.43;103056.50;5072456;28;20084;-63
2023/01/28 09:03:31;;;;;;;13.90;8.65;;;;;;;3.56;68.10;103049.47;5072836;28;20029;-63
2023/01/28 09:06:03;;;;;;;13.77;8.38;;;;;;;3.61;67.79;103057.63;5072498;28;20500;-64
2023/01/28 09:08:29;;;;;;;13.85;8.23;;;;;;;3.64;68.76;103044.78;5072441;28;20053;-63
2023/01/28 09:10:55;;;;;;;13.43;8.45;;;;;;;3.64;70.00;103055.22;5072393;28;20036;-63
2023/01/28 09:13:21;;;;;;;14.68;8.60;;;;;;;3.69;68.97;103061.75;5054449;28;20047;-63
2023/01/28 09:15:47;;;;;;;13.48;8.57;;;;;;;3.73;69.50;103059.47;5054405;28;20415;-63
2023/01/28 09:18:12;;;;;;;12.15;8.15;;;;;;;3.75;69.18;103056.94;5072608;28;20381;-63
2023/01/28 09:20:38;;;;;;;11.52;7.97;;;;;;;3.79;68.39;103073.78;5054334;28;20029;-63
2023/01/28 09:23:03;;;;;;;13.00;8.68;;;;;;;3.76;68.92;103071.84;5072295;28;20405;-63
2023/01/28 09:25:29;;;;;;;16.23;9.90;;;;;;;3.75;68.70;103070.94;5072309;28;20381;-63
2023/01/28 09:27:55;;;;;;;12.90;8.90;;;;;;;3.78;69.29;103069.34;5075985;28;20545;-62
2023/01/28 09:30:20;;;;;;;13.32;9.00;;;;;;;3.78;68.65;103067.66;5075820;28;20032;-63
2023/01/28 09:32:50;;;;;;;14.13;9.43;;;;;;;3.70;68.31;103074.00;5076015;28;20017;-64
2023/01/28 09:35:16;;;;;;;13.48;9.05;;;;;;;3.69;68.70;103074.81;5075964;28;20016;-63
2023/01/28 09:37:43;;;;;;;12.88;8.65;;;;;;;3.68;69.36;103079.13;5076111;28;20028;-63
2023/01/28 09:40:17;;;;;;;14.10;9.15;;;;;;;3.69;69.58;103075.72;5075828;28;20032;-62
2023/01/28 09:42:42;;;;;;;13.65;9.23;;;;;;;3.68;68.12;103081.75;5057915;28;20438;-62
2023/01/28 09:45:16;;;;;;;13.95;9.38;;;;;;;3.64;68.89;103095.38;5075973;28;20029;-62
2023/01/28 09:47:51;;;;;;;12.90;8.85;;;;;;;3.65;69.55;103091.97;5075874;28;20036;-63
2023/01/28 09:50:23;;;;;;;12.90;9.25;;;;;;;3.61;69.77;103082.06;5075641;28;20458;-63
2023/01/28 09:52:50;;;;;;;13.50;9.65;;;;;;;3.60;69.44;103081.94;5075688;28;20028;-62
2023/01/28 09:55:51;;;;;;;23.95;13.75;;;;;;;3.62;70.09;103082.97;5075551;28;20036;-63
2023/01/28 09:58:17;;;;;;;13.20;8.82;;;;;;;3.60;69.40;103089.78;5071335;28;20492;-63
2023/01/28 10:01:05;;;;;;;12.68;8.75;;;;;;;3.58;69.92;103088.78;5075401;28;20025;-62
2023/01/28 10:03:55;;;;;;;12.18;8.70;;;;;;;3.59;71.83;103091.50;5075056;28;20107;-62
2023/01/28 10:06:34;;;;;;;13.32;8.80;;;;;;;3.60;69.98;103100.22;5075406;28;20037;-62
2023/01/28 10:09:14;;;;;;;13.05;9.23;;;;;;;3.67;70.03;103107.75;5075617;28;20020;-62
2023/01/28 10:11:58;;;;;;;15.15;10.25;;;;;;;3.67;69.77;103106.03;5075310;28;20024;-62
2023/01/28 10:14:54;;;;;;;13.73;10.00;;;;;;;3.68;70.59;103106.94;5075045;28;20132;-62
2023/01/28 10:17:23;;;;;;;12.80;9.00;;;;;;;3.55;68.62;103102.50;5075202;28;20048;-62
2023/01/28 10:20:07;;;;;;;12.63;9.07;;;;;;;3.54;69.51;103099.78;5075093;28;20025;-62
2023/01/28 10:22:42;;;;;;;13.20;9.43;;;;;;;3.58;71.79;103107.97;5075032;28;20033;-62
2023/01/28 10:25:24;;;;;;;13.20;9.35;;;;;;;3.53;69.68;103106.72;5075191;28;20032;-62
2023/01/28 10:27:50;;;;;;;13.45;9.60;;;;;;;3.56;70.37;103101.75;5075082;28;20563;-62
2023/01/28 10:30:27;;;;;;;12.70;8.52;;;;;;;3.56;69.36;103106.97;5074631;28;20111;-63
2023/01/28 10:33:02;;;;;;;11.00;7.93;;;;;;;3.58;69.99;103110.59;5058124;28;20093;-63
2023/01/28 10:35:32;;;;;;;12.70;8.85;;;;;;;3.63;70.17;103097.88;5057050;28;20035;-63
2023/01/28 10:38:05;;;;;;;12.18;8.98;;;;;;;3.61;70.51;103100.38;5073941;28;20031;-62
2023/01/28 10:40:30;;;;;;;;;;;;;;;3.69;69.76;103103.56;5057633;28;20040;-64
2023/01/28 10:42:56;;;;;;;11.05;7.70;;;;;;;3.66;69.18;103104.25;5074685;28;19919;-63
2023/01/28 10:45:29;;;;;;;12.07;8.07;;;;;;;3.69;69.95;103098.34;5074676;28;20099;-62
2023/01/28 10:48:07;;;;;;;11.95;8.05;;;;;;;3.70;68.90;103098.44;5074502;28;20037;-63
2023/01/28 10:50:34;;;;;;;11.93;8.20;;;;;;;3.63;68.18;103097.88;5073723;28;20040;-63
2023/01/28 10:53:04;;;;;;;12.45;8.40;;;;;;;3.62;67.85;103094.34;5074423;28;20386;-65
2023/01/28 10:55:54;;;;;;;11.20;8.32;;;;;;;3.67;68.77;103092.97;5074390;28;20028;-64
2023/01/28 10:58:23;;;;;;;10.90;8.10;;;;;;;3.54;68.24;103094.56;5074372;28;20377;-64
2023/01/28 11:01:06;;;;;;;12.50;8.63;;;;;;;3.55;69.30;103104.22;5074129;28;20467;-63
2023/01/28 11:03:34;;;;;;;12.20;8.65;;;;;;;3.60;70.80;103101.19;5074230;28;20020;-63
2023/01/28 11:06:00;;;;;;;12.20;8.75;;;;;;;3.51;69.31;103100.44;5074391;28;20032;-63
2023/01/28 11:08:27;;;;;;;12.43;8.55;;;;;;;3.44;68.60;103099.09;5074304;28;20116;-63
2023/01/28 11:10:54;;;;;;;12.05;9.00;;;;;;;3.38;68.17;103095.09;5074220;28;20051;-64
2023/01/28 11:13:22;;;;;;;10.68;7.70;;;;;;;3.42;69.91;103099.75;5073720;28;20068;-62
2023/01/28 11:16:18;;;;;;;10.82;7.70;;;;;;;3.50;69.95;103096.03;5073910;28;20092;-63
2023/01/28 11:19:10;;;;;;;13.13;7.95;;;;;;;3.55;69.95;103093.75;5053220;28;20041;-65
2023/01/28 11:21:37;;;;;;;11.03;7.70;;;;;;;3.64;71.27;103090.16;5073799;28;20025;-62
2023/01/28 11:24:18;;;;;;;12.98;8.75;;;;;;;3.69;69.92;103078.34;5073793;28;20039;-62
2023/01/28 11:26:51;;;;;;;12.07;8.07;;;;;;;3.77;70.16;103073.69;5056921;28;20070;-63
2023/01/28 11:29:27;;;;;;;;;;;;;;;3.87;69.96;103070.03;5039955;28;20392;-63
2023/01/28 11:31:54;;;;;;;12.82;8.45;;;;;;;3.86;68.53;103068.22;5073548;28;19912;-62
2023/01/28 11:34:24;;;;;;;12.30;8.30;;;;;;;3.89;68.91;103061.47;5073495;28;20032;-62
2023/01/28 11:37:15;;;;;;;15.60;9.80;;;;;;;3.96;68.66;103058.53;5073540;28;20019;-62
2023/01/28 11:39:41;;;;;;;14.30;8.48;;;;;;;3.99;68.10;103064.00;5073528;28;20032;-63
2023/01/28 11:42:17;;;;;;;13.20;8.43;;;;;;;4.00;67.30;103059.66;5073270;28;20161;-62
2023/01/28 11:44:43;;;;;;;12.07;8.48;;;;;;;4.01;66.80;103056.25;5073541;28;20024;-63
2023/01/28 11:47:31;;;;;;;13.15;8.75;;;;;;;4.03;66.88;103059.91;5073353;28;20056;-62
2023/01/28 11:50:36;;;;;;;11.95;8.02;;;;;;;4.11;66.82;103035.19;5073217;28;20477;-63
2023/01/28 11:53:20;;;;;;;11.55;8.00;;;;;;;4.16;67.16;103033.81;5073005;28;20032;-63
2023/01/28 11:55:54;;;;;;;11.77;7.50;;;;;;;4.14;67.24;103014.47;5072570;28;20051;-62
2023/01/28 11:58:19;;;;;;;7.78;5.30;;;;;;;4.15;64.94;103011.03;5072997;28;20029;-63
2023/01/28 12:00:58;;;;;;;8.95;5.60;;;;;;;4.18;64.99;103000.81;5072881;28;20026;-63
2023/01/28 12:03:50;;;;;;;9.52;6.38;;;;;;;4.25;64.94;102994.31;5073119;28;20025;-64
2023/01/28 12:06:38;;;;;;;9.17;6.70;;;;;;;4.30;65.34;102961.53;5073133;28;20469;-63
2023/01/28 12:09:16;;;;;;;10.27;6.63;;;;;;;4.45;64.41;102969.53;5073355;28;20043;-63
2023/01/28 12:12:12;;;;;;;9.85;7.32;;;;;;;4.57;64.64;102969.47;5072742;28;20071;-62